createdAt,value
2022-10-28T00:00:54.303Z,19.46
2022-10-28T00:03:22.467Z,19.56
2022-10-28T00:05:50.371Z,19.51
2022-10-28T00:10:46.066Z,19.25
2022-10-28T00:13:15.789Z,19.29
2022-10-28T00:15:43.685Z,19.36
2022-10-28T00:18:11.991Z,19.44
2022-10-28T00:20:39.990Z,19.58
2022-10-28T00:23:07.960Z,19.67
2022-10-28T00:25:35.969Z,19.57
2022-10-28T00:28:03.945Z,19.35
2022-10-28T00:30:33.635Z,19.34
2022-10-28T00:33:01.532Z,19.55
2022-10-28T00:35:29.441Z,19.59
2022-10-28T00:37:57.326Z,19.45
2022-10-28T00:40:25.268Z,19.47
2022-10-28T00:42:53.428Z,19.55
2022-10-28T00:45:21.575Z,19.46
2022-10-28T00:47:57.546Z,19.66
2022-10-28T00:50:44.616Z,19.81
2022-10-28T00:53:16.708Z,19.89
2022-10-28T00:55:46.500Z,19.88
2022-10-28T00:58:15.348Z,19.92
2022-10-28T01:00:43.618Z,19.40
2022-10-28T01:03:12.970Z,19.08
2022-10-28T01:05:43.698Z,18.80
2022-10-28T01:08:14.854Z,19.09
2022-10-28T01:11:02.879Z,19.05
2022-10-28T01:13:41.541Z,19.16
2022-10-28T01:16:22.508Z,19.23
2022-10-28T01:19:02.103Z,19.14
2022-10-28T01:21:52.368Z,19.16
2022-10-28T01:24:37.418Z,18.89
2022-10-28T01:27:50.276Z,18.91
2022-10-28T01:30:21.130Z,19.02
2022-10-28T01:32:56.858Z,18.67
2022-10-28T01:38:23.612Z,18.79
2022-10-28T01:40:59.197Z,18.82
2022-10-28T01:43:32.771Z,18.76
2022-10-28T01:46:04.351Z,18.79
2022-10-28T01:48:41.111Z,18.79
2022-10-28T01:51:14.438Z,18.65
2022-10-28T01:53:46.949Z,18.48
2022-10-28T01:56:18.840Z,18.49
2022-10-28T01:58:48.410Z,18.53
2022-10-28T02:01:17.717Z,18.46
2022-10-28T02:03:48.810Z,18.46
2022-10-28T02:06:20.026Z,18.11
2022-10-28T02:08:56.147Z,17.75
2022-10-28T02:11:39.105Z,17.78
2022-10-28T02:14:21.558Z,18.06
2022-10-28T02:16:51.319Z,18.21
2022-10-28T02:19:32.204Z,18.10
2022-10-28T02:22:11.779Z,18.03
2022-10-28T02:24:47.072Z,18.11
2022-10-28T02:27:22.566Z,17.66
2022-10-28T02:29:55.452Z,17.83
2022-10-28T02:32:27.857Z,17.28
2022-10-28T02:35:00.339Z,17.47
2022-10-28T02:37:32.335Z,17.63
2022-10-28T02:40:03.527Z,17.51
2022-10-28T02:42:34.523Z,17.64
2022-10-28T02:45:08.536Z,17.68
2022-10-28T02:47:40.876Z,17.26
2022-10-28T02:50:16.299Z,17.31
2022-10-28T02:52:47.865Z,17.40
2022-10-28T02:55:16.018Z,17.49
2022-10-28T02:57:48.528Z,17.20
2022-10-28T03:22:22.283Z,16.43
2022-10-28T03:24:50.184Z,16.67
2022-10-28T03:27:18.132Z,16.54
2022-10-28T03:29:46.373Z,16.33
2022-10-28T03:32:14.562Z,16.49
2022-10-28T03:34:42.653Z,16.33
2022-10-28T03:37:10.668Z,15.91
2022-10-28T03:39:39.950Z,15.99
2022-10-28T03:42:07.881Z,16.22
2022-10-28T03:44:35.820Z,16.40
2022-10-28T03:47:03.715Z,16.23
2022-10-28T03:49:31.725Z,16.19
2022-10-28T03:51:59.667Z,16.25
2022-10-28T03:54:27.550Z,16.44
2022-10-28T03:56:56.909Z,16.13
2022-10-28T03:59:25.010Z,15.77
2022-10-28T04:01:53.043Z,15.72
2022-10-28T04:04:22.099Z,15.83
2022-10-28T04:06:50.342Z,16.13
2022-10-28T04:09:21.614Z,16.32
2022-10-28T04:11:49.997Z,16.55
2022-10-28T04:14:19.255Z,16.53
2022-10-28T04:16:47.151Z,16.62
2022-10-28T04:19:15.076Z,16.62
2022-10-28T04:21:43.031Z,16.80
2022-10-28T04:24:11.080Z,17.01
2022-10-28T04:26:38.997Z,17.09
2022-10-28T04:29:08.296Z,17.16
2022-10-28T04:31:37.602Z,17.15
2022-10-28T04:34:05.653Z,17.17
2022-10-28T04:36:33.537Z,17.19
2022-10-28T04:39:01.440Z,17.22
2022-10-28T04:41:29.523Z,17.23
2022-10-28T04:43:57.526Z,17.23
2022-10-28T04:46:25.429Z,17.08
2022-10-28T04:48:54.761Z,17.16
2022-10-28T04:51:22.661Z,17.32
2022-10-28T04:53:50.701Z,17.33
2022-10-28T04:56:18.682Z,17.30
2022-10-28T04:58:48.466Z,17.32
2022-10-28T05:01:16.630Z,17.26
2022-10-28T05:03:44.742Z,17.32
2022-10-28T05:06:14.015Z,17.29
2022-10-28T05:08:42.138Z,17.33
2022-10-28T05:11:10.044Z,17.23
2022-10-28T05:13:39.224Z,17.28
2022-10-28T05:16:08.425Z,17.26
2022-10-28T05:18:36.570Z,17.29
2022-10-28T05:21:04.923Z,17.28
2022-10-28T05:23:34.247Z,17.19
2022-10-28T05:26:02.129Z,17.28
2022-10-28T05:28:30.267Z,17.35
2022-10-28T05:30:58.221Z,17.32
2022-10-28T05:33:26.284Z,17.39
2022-10-28T05:35:54.307Z,17.43
2022-10-28T05:38:22.214Z,17.36
2022-10-28T05:40:51.500Z,17.34
2022-10-28T05:43:19.544Z,17.36
2022-10-28T05:45:53.557Z,17.33
2022-10-28T05:48:21.558Z,17.31
2022-10-28T05:50:49.649Z,17.40
2022-10-28T05:53:17.641Z,17.12
2022-10-28T05:55:47.791Z,17.28
2022-10-28T05:58:17.663Z,17.46
2022-10-28T06:00:45.603Z,17.43
2022-10-28T06:03:13.915Z,17.55
2022-10-28T06:05:44.895Z,17.49
2022-10-28T06:08:13.643Z,17.46
2022-10-28T06:10:42.240Z,17.50
2022-10-28T06:13:09.146Z,17.47
2022-10-28T06:15:38.490Z,17.56
2022-10-28T06:18:06.443Z,17.36
2022-10-28T06:20:34.515Z,17.09
2022-10-28T06:23:02.421Z,17.30
2022-10-28T06:25:30.327Z,17.34
2022-10-28T06:28:01.016Z,17.44
2022-10-28T06:30:29.093Z,17.36
2022-10-28T06:32:58.476Z,17.33
2022-10-28T06:35:26.432Z,17.35
2022-10-28T06:37:55.238Z,17.19
2022-10-28T06:40:24.819Z,16.88
2022-10-28T06:42:57.288Z,17.04
2022-10-28T06:45:25.378Z,17.07
2022-10-28T06:48:00.583Z,17.14
2022-10-28T06:50:29.665Z,16.86
2022-10-28T06:53:00.621Z,16.98
2022-10-28T06:55:29.400Z,16.93
2022-10-28T06:58:00.998Z,16.98
2022-10-28T07:03:04.645Z,17.13
2022-10-28T07:05:32.641Z,17.18
2022-10-28T07:08:00.629Z,17.30
2022-10-28T07:10:28.617Z,17.39
2022-10-28T07:12:56.898Z,17.68
2022-10-28T07:15:25.187Z,17.73
2022-10-28T07:17:54.950Z,17.66
2022-10-28T07:20:25.395Z,17.72
2022-10-28T07:22:57.261Z,17.97
2022-10-28T07:25:25.162Z,18.08
2022-10-28T07:27:53.575Z,18.20
2022-10-28T07:30:21.637Z,18.28
2022-10-28T07:32:49.719Z,18.23
2022-10-28T07:35:20.076Z,18.21
2022-10-28T07:37:49.434Z,18.54
2022-10-28T07:40:17.970Z,18.77
2022-10-28T07:42:45.890Z,18.87
2022-10-28T07:45:13.968Z,19.12
2022-10-28T07:47:44.867Z,19.32
2022-10-28T07:50:14.015Z,19.28
2022-10-28T07:52:41.938Z,19.67
2022-10-28T07:55:13.023Z,19.69
2022-10-28T07:57:40.967Z,20.05
2022-10-28T08:00:09.994Z,20.23
2022-10-28T08:02:40.962Z,20.56
2022-10-28T08:05:09.397Z,20.79
2022-10-28T08:07:38.766Z,20.39
2022-10-28T08:10:11.934Z,20.63
2022-10-28T08:12:39.862Z,20.87
2022-10-28T08:15:10.496Z,21.05
2022-10-28T08:17:38.464Z,21.15
2022-10-28T08:20:07.855Z,21.22
2022-10-28T08:22:37.021Z,21.18
2022-10-28T08:25:05.544Z,21.25
2022-10-28T08:27:34.842Z,20.94
2022-10-28T08:30:02.781Z,21.01
2022-10-28T08:32:30.707Z,20.86
2022-10-28T08:34:58.585Z,20.76
2022-10-28T08:37:26.510Z,20.79
2022-10-28T08:39:54.457Z,20.69
2022-10-28T08:42:36.652Z,20.95
2022-10-28T08:45:23.863Z,21.00
2022-10-28T08:48:03.426Z,21.28
2022-10-28T08:50:33.845Z,21.47
2022-10-28T08:53:07.160Z,21.53
2022-10-28T08:55:39.498Z,21.58
2022-10-28T08:58:16.031Z,21.59
2022-10-28T09:00:51.181Z,21.59
2022-10-28T09:03:22.583Z,21.62
2022-10-28T09:05:57.428Z,21.85
2022-10-28T09:08:28.773Z,21.90
2022-10-28T09:11:05.022Z,22.02
2022-10-28T09:13:47.199Z,22.17
2022-10-28T09:16:29.392Z,22.22
2022-10-28T09:18:59.163Z,22.36
2022-10-28T09:21:33.585Z,22.35
2022-10-28T09:24:09.270Z,22.55
2022-10-28T09:26:49.082Z,22.65
2022-10-28T09:29:44.172Z,22.94
2022-10-28T09:32:22.638Z,23.12
2022-10-28T09:34:57.763Z,23.31
2022-10-28T09:37:29.750Z,23.52
2022-10-28T09:40:02.584Z,23.68
2022-10-28T09:42:36.320Z,23.64
2022-10-28T09:45:07.194Z,23.67
2022-10-28T09:47:41.671Z,23.68
2022-10-28T09:50:16.971Z,23.64
2022-10-28T09:52:54.960Z,23.48
2022-10-28T09:55:23.963Z,23.60
2022-10-28T09:57:52.334Z,23.76
2022-10-28T10:00:21.039Z,23.89
2022-10-28T10:02:54.265Z,23.99
2022-10-28T10:05:22.310Z,24.07
2022-10-28T10:07:54.684Z,24.17
2022-10-28T10:10:25.985Z,24.16
2022-10-28T10:12:58.647Z,24.09
2022-10-28T10:15:31.993Z,24.27
2022-10-28T10:18:03.571Z,24.31
2022-10-28T10:20:48.190Z,24.51
2022-10-28T10:23:24.400Z,24.47
2022-10-28T10:25:56.725Z,24.52
2022-10-28T10:28:26.496Z,24.46
2022-10-28T10:30:56.291Z,24.49
2022-10-28T10:33:29.499Z,24.48
2022-10-28T10:36:01.841Z,24.48
2022-10-28T10:38:31.311Z,24.60
2022-10-28T10:40:59.318Z,24.72
2022-10-28T10:43:32.639Z,24.67
2022-10-28T10:46:02.877Z,24.87
2022-10-28T10:48:36.307Z,24.94
2022-10-28T10:51:09.845Z,25.06
2022-10-28T10:53:41.008Z,25.17
2022-10-28T10:56:13.152Z,25.41
2022-10-28T10:58:51.741Z,25.54
2022-10-28T11:01:22.906Z,25.50
2022-10-28T11:03:55.597Z,25.39
2022-10-28T11:06:27.690Z,25.51
2022-10-28T11:08:58.482Z,25.62
2022-10-28T11:11:35.213Z,25.68
2022-10-28T11:14:08.787Z,25.65
2022-10-28T11:16:49.183Z,25.58
2022-10-28T11:19:23.042Z,25.47
2022-10-28T11:22:14.857Z,25.50
2022-10-28T11:24:59.012Z,25.40
2022-10-28T11:27:39.121Z,25.29
2022-10-28T11:30:12.113Z,25.23
2022-10-28T11:33:02.239Z,25.17
2022-10-28T11:35:53.318Z,25.08
2022-10-28T11:38:45.505Z,25.08
2022-10-28T11:41:27.396Z,24.99
2022-10-28T11:44:00.917Z,24.94
2022-10-28T11:46:40.615Z,24.91
2022-10-28T11:49:33.751Z,24.89
2022-10-28T11:52:17.007Z,24.80
2022-10-28T11:54:57.955Z,24.76
2022-10-28T11:57:46.236Z,24.64
2022-10-28T12:00:28.733Z,24.70
2022-10-28T12:03:13.696Z,24.67
2022-10-28T12:05:48.071Z,24.68
2022-10-28T12:08:33.596Z,24.71
2022-10-28T12:11:14.673Z,24.85
2022-10-28T12:13:52.869Z,25.00
2022-10-28T12:16:30.609Z,25.08
2022-10-28T12:19:03.902Z,25.04
2022-10-28T12:24:08.150Z,25.31
2022-10-28T12:26:41.762Z,25.36
2022-10-28T12:29:18.782Z,25.38
2022-10-28T12:31:51.221Z,25.52
2022-10-28T12:34:27.084Z,25.60
2022-10-28T12:37:01.496Z,25.60
2022-10-28T12:39:35.191Z,25.63
2022-10-28T12:42:11.905Z,25.71
2022-10-28T12:44:40.829Z,25.67
2022-10-28T12:47:20.338Z,25.74
2022-10-28T12:50:05.113Z,25.77
2022-10-28T12:52:41.413Z,25.82
2022-10-28T12:55:20.519Z,25.91
2022-10-28T12:57:55.323Z,25.85
2022-10-28T13:00:27.382Z,25.66
2022-10-28T13:03:02.349Z,25.69
2022-10-28T13:05:36.089Z,25.57
2022-10-28T13:08:24.552Z,25.64
2022-10-28T13:10:59.892Z,25.67
2022-10-28T13:13:47.090Z,25.65
2022-10-28T13:16:40.450Z,25.54
2022-10-28T13:19:25.638Z,25.44
2022-10-28T13:22:23.296Z,25.40
2022-10-28T13:24:59.450Z,25.32
2022-10-28T13:27:29.316Z,25.37
2022-10-28T13:30:01.992Z,25.44
2022-10-28T13:32:37.429Z,25.45
2022-10-28T13:35:16.268Z,25.54
2022-10-28T13:37:49.063Z,25.58
2022-10-28T13:40:50.393Z,25.55
2022-10-28T13:43:43.604Z,25.64
2022-10-28T13:46:11.827Z,25.72
2022-10-28T13:48:49.270Z,25.77
2022-10-28T13:51:45.492Z,25.76
2022-10-28T13:54:26.815Z,25.76
2022-10-28T13:56:56.863Z,25.79
2022-10-28T13:59:51.160Z,25.98
2022-10-28T14:02:39.717Z,25.92
2022-10-28T14:05:09.990Z,25.91
2022-10-28T14:07:42.179Z,26.01
2022-10-28T14:10:21.141Z,25.93
2022-10-28T14:12:52.529Z,25.86
2022-10-28T14:15:26.984Z,25.95
2022-10-28T14:18:09.777Z,25.81
2022-10-28T14:20:59.204Z,25.78
2022-10-28T14:24:07.100Z,25.77
2022-10-28T14:27:08.191Z,25.77
2022-10-28T14:29:44.258Z,25.68
2022-10-28T14:32:45.014Z,25.62
2022-10-28T14:35:29.627Z,25.48
2022-10-28T14:38:23.318Z,25.39
2022-10-28T14:40:52.362Z,25.33
2022-10-28T14:43:44.560Z,25.22
2022-10-28T14:46:29.477Z,25.24
2022-10-28T14:49:00.580Z,25.29
2022-10-28T14:51:31.447Z,25.32
2022-10-28T14:54:02.543Z,25.33
2022-10-28T14:56:32.195Z,25.34
2022-10-28T14:59:05.753Z,25.32
2022-10-28T15:01:50.969Z,25.20
2022-10-28T15:04:22.104Z,25.14
2022-10-28T15:06:52.097Z,25.03
2022-10-28T15:09:25.310Z,24.89
2022-10-28T15:11:57.191Z,24.84
2022-10-28T15:14:32.027Z,24.81
2022-10-28T15:17:01.154Z,24.78
2022-10-28T15:19:35.771Z,24.75
2022-10-28T15:22:06.462Z,24.74
2022-10-28T15:24:34.973Z,24.64
2022-10-28T15:27:02.927Z,24.56
2022-10-28T15:29:31.076Z,24.54
2022-10-28T15:32:12.359Z,24.52
2022-10-28T15:34:42.305Z,24.50
2022-10-28T15:37:11.060Z,24.47
2022-10-28T15:39:40.856Z,24.41
2022-10-28T15:42:31.738Z,24.41
2022-10-28T15:45:00.171Z,24.32
2022-10-28T15:47:34.382Z,24.27
2022-10-28T15:50:21.331Z,24.20
2022-10-28T15:52:54.289Z,24.11
2022-10-28T15:55:47.633Z,23.97
2022-10-28T15:58:36.139Z,23.82
2022-10-28T16:01:05.964Z,23.81
2022-10-28T16:03:43.627Z,23.71
2022-10-28T16:06:28.029Z,23.64
2022-10-28T16:09:05.656Z,23.59
2022-10-28T16:11:36.506Z,23.48
2022-10-28T16:14:21.819Z,23.44
2022-10-28T16:16:49.901Z,23.36
2022-10-28T16:19:27.484Z,23.24
2022-10-28T16:21:59.022Z,23.11
2022-10-28T16:24:27.061Z,23.01
2022-10-28T16:26:54.998Z,22.93
2022-10-28T16:29:22.914Z,22.82
2022-10-28T16:31:52.779Z,22.66
2022-10-28T16:34:20.779Z,22.49
2022-10-28T16:36:48.660Z,22.36
2022-10-28T16:39:18.050Z,22.15
2022-10-28T16:41:46.008Z,21.89
2022-10-28T16:44:19.110Z,21.70
2022-10-28T16:46:47.072Z,21.60
2022-10-28T16:49:15.040Z,21.56
2022-10-28T16:51:44.796Z,21.39
2022-10-28T16:54:12.734Z,21.28
2022-10-28T16:56:42.026Z,21.24
2022-10-28T16:59:09.984Z,21.14
2022-10-28T17:01:38.053Z,21.07
2022-10-28T17:04:06.668Z,20.96
2022-10-28T17:06:34.597Z,20.92
2022-10-28T17:09:03.799Z,20.83
2022-10-28T17:14:06.687Z,20.64
2022-10-28T17:16:36.952Z,20.69
2022-10-28T17:19:07.292Z,20.71
2022-10-28T17:21:35.403Z,20.65
2022-10-28T17:24:04.759Z,20.69
2022-10-28T17:26:32.705Z,20.65
2022-10-28T17:29:00.718Z,20.53
2022-10-28T17:31:30.009Z,20.55
2022-10-28T17:33:57.949Z,20.38
2022-10-28T17:36:25.960Z,20.38
2022-10-28T17:38:56.917Z,20.38
2022-10-28T17:41:24.813Z,20.23
2022-10-28T17:43:54.174Z,20.38
2022-10-28T17:46:22.841Z,19.93
2022-10-28T17:48:54.253Z,20.04
2022-10-28T17:51:25.245Z,20.24
2022-10-28T17:53:55.098Z,20.20
2022-10-28T17:56:23.324Z,20.20
2022-10-28T17:58:53.517Z,20.21
2022-10-28T18:01:21.980Z,20.20
2022-10-28T18:03:50.714Z,20.10
2022-10-28T18:06:20.248Z,20.09
2022-10-28T18:11:20.451Z,20.09
2022-10-28T18:13:52.867Z,20.08
2022-10-28T18:16:24.428Z,20.05
2022-10-28T18:18:53.795Z,20.06
2022-10-28T18:21:24.424Z,20.08
2022-10-28T18:23:53.498Z,20.04
2022-10-28T18:26:22.749Z,20.00
2022-10-28T18:28:50.645Z,19.98
2022-10-28T18:31:20.342Z,19.97
2022-10-28T18:33:49.182Z,19.96
2022-10-28T18:36:19.134Z,19.91
2022-10-28T18:38:48.926Z,19.94
2022-10-28T18:41:19.043Z,19.96
2022-10-28T18:43:46.986Z,20.07
2022-10-28T18:46:15.848Z,20.14
2022-10-28T18:48:43.819Z,20.16
2022-10-28T18:51:13.904Z,20.18
2022-10-28T18:53:43.572Z,20.18
2022-10-28T18:56:14.999Z,20.11
2022-10-28T18:58:43.151Z,19.96
2022-10-28T19:01:13.631Z,20.00
2022-10-28T19:03:44.945Z,20.07
2022-10-28T19:06:14.918Z,20.06
2022-10-28T19:08:43.696Z,20.13
2022-10-28T19:11:14.601Z,19.94
2022-10-28T19:13:44.032Z,19.79
2022-10-28T19:18:40.971Z,19.80
2022-10-28T19:21:11.852Z,19.84
2022-10-28T19:23:40.121Z,19.76
2022-10-28T19:26:13.735Z,19.79
2022-10-28T19:28:43.342Z,19.74
2022-10-28T19:31:14.707Z,19.54
2022-10-28T19:33:43.473Z,19.39
2022-10-28T19:36:18.901Z,19.18
2022-10-28T19:38:49.046Z,19.30
2022-10-28T19:41:21.756Z,19.31
2022-10-28T19:43:56.784Z,19.23
2022-10-28T19:46:27.565Z,19.36
2022-10-28T19:48:58.249Z,19.25
2022-10-28T19:51:28.568Z,19.23
2022-10-28T19:53:58.320Z,19.34
2022-10-28T19:56:28.664Z,19.27
2022-10-28T19:58:58.511Z,19.19
2022-10-28T20:01:28.281Z,19.25
2022-10-28T20:03:56.788Z,19.06
2022-10-28T20:06:26.516Z,19.12
2022-10-28T20:08:57.027Z,19.10
2022-10-28T20:11:27.778Z,19.16
2022-10-28T20:13:58.723Z,18.79
2022-10-28T20:16:26.921Z,18.93
2022-10-28T20:18:55.345Z,18.94
2022-10-28T20:21:25.003Z,19.05
2022-10-28T20:23:55.056Z,19.01
2022-10-28T20:26:25.890Z,18.84
2022-10-28T20:28:55.746Z,18.98
2022-10-28T20:31:25.215Z,18.84
2022-10-28T20:33:54.713Z,19.04
2022-10-28T20:36:24.885Z,18.62
2022-10-28T20:38:56.327Z,18.33
2022-10-28T20:41:25.207Z,18.27
2022-10-28T20:43:56.130Z,18.55
2022-10-28T20:46:25.617Z,18.58
2022-10-28T20:48:54.921Z,18.30
2022-10-28T20:51:23.666Z,18.51
2022-10-28T20:53:52.179Z,18.50
2022-10-28T20:56:22.140Z,18.26
2022-10-28T20:58:50.113Z,18.24
2022-10-28T21:01:21.386Z,18.43
2022-10-28T21:03:49.865Z,18.58
2022-10-28T21:06:18.655Z,18.63
2022-10-28T21:08:46.581Z,18.75
2022-10-28T21:11:16.906Z,18.28
2022-10-28T21:13:52.174Z,17.84
2022-10-28T21:16:21.976Z,17.95
2022-10-28T21:18:50.732Z,18.05
2022-10-28T21:21:19.448Z,17.99
2022-10-28T21:23:47.535Z,18.25
2022-10-28T21:26:15.585Z,18.46
2022-10-28T21:28:43.709Z,18.32
2022-10-28T21:31:13.497Z,18.46
2022-10-28T21:33:43.623Z,18.48
2022-10-28T21:36:13.514Z,18.41
2022-10-28T21:38:41.589Z,18.53
2022-10-28T21:41:12.676Z,18.59
2022-10-28T21:43:42.297Z,18.50
2022-10-28T21:46:11.030Z,18.37
2022-10-28T21:48:39.251Z,18.44
2022-10-28T21:51:14.488Z,18.48
2022-10-28T21:53:44.080Z,18.20
2022-10-28T21:56:17.128Z,17.95
2022-10-28T21:58:47.140Z,18.10
2022-10-28T22:01:17.479Z,18.10
2022-10-28T22:03:45.501Z,17.99
2022-10-28T22:06:14.994Z,17.96
2022-10-28T22:08:43.190Z,17.65
2022-10-28T22:11:13.872Z,17.85
2022-10-28T22:13:41.785Z,17.98
2022-10-28T22:16:12.357Z,17.69
2022-10-28T22:18:40.973Z,17.66
2022-10-28T22:21:11.245Z,17.76
2022-10-28T22:23:40.851Z,17.83
2022-10-28T22:26:10.301Z,17.73
2022-10-28T22:28:38.491Z,17.43
2022-10-28T22:31:07.978Z,17.43
2022-10-28T22:33:36.726Z,17.41
2022-10-28T22:36:07.310Z,17.55
2022-10-28T22:38:35.410Z,17.35
2022-10-28T22:41:06.324Z,17.54
2022-10-28T22:43:35.193Z,17.70
2022-10-28T22:46:03.217Z,17.77
2022-10-28T22:48:31.537Z,17.52
2022-10-28T22:51:00.207Z,17.73
2022-10-28T22:53:28.749Z,17.76
2022-10-28T22:55:57.813Z,17.88
2022-10-28T22:58:29.386Z,17.97
2022-10-28T23:01:06.410Z,17.66
2022-10-28T23:03:38.134Z,17.65
2022-10-28T23:06:07.049Z,17.68
2022-10-28T23:08:35.242Z,17.74
2022-10-28T23:11:03.173Z,17.86
2022-10-28T23:13:32.655Z,17.86
2022-10-28T23:16:04.109Z,17.92
2022-10-28T23:18:32.055Z,17.66
2022-10-28T23:21:05.101Z,17.69
2022-10-28T23:23:33.039Z,17.72
2022-10-28T23:26:00.957Z,17.90
2022-10-28T23:28:28.854Z,17.95
2022-10-28T23:31:00.675Z,17.94
2022-10-28T23:33:29.426Z,17.86
2022-10-28T23:35:57.505Z,17.68
2022-10-28T23:38:25.646Z,17.49
2022-10-28T23:40:58.229Z,17.62
2022-10-28T23:43:26.459Z,17.84
2022-10-28T23:45:54.558Z,17.74
2022-10-28T23:48:24.228Z,17.93
2022-10-28T23:50:52.610Z,18.03
2022-10-28T23:53:21.278Z,17.93
2022-10-28T23:55:50.646Z,17.90
2022-10-28T23:58:20.186Z,17.68
